createdAt,value
2018-01-21T00:00:03.941Z,87.82
2018-01-21T00:01:15.560Z,88.1
2018-01-21T00:02:25.614Z,88.1
2018-01-21T00:03:35.145Z,88.2
2018-01-21T00:04:44.708Z,88.2
2018-01-21T00:05:54.745Z,88.1
2018-01-21T00:07:04.798Z,87.82
2018-01-21T00:08:14.858Z,87.92
2018-01-21T00:09:24.904Z,87.82
2018-01-21T00:10:35.018Z,88.2
2018-01-21T00:11:45.080Z,88.2
2018-01-21T00:12:55.125Z,88.35
2018-01-21T00:14:05.207Z,88.16
2018-01-21T00:15:15.255Z,88.06
2018-01-21T00:16:25.429Z,88.06
2018-01-21T00:17:35.466Z,88.06
2018-01-21T00:18:45.516Z,87.87
2018-01-21T00:19:55.363Z,87.87
2018-01-21T00:21:05.161Z,87.87
2018-01-21T00:22:16.093Z,88.25
2018-01-21T00:23:26.137Z,87.87
2018-01-21T00:24:36.227Z,87.77
2018-01-21T00:25:46.265Z,88.06
2018-01-21T00:26:56.323Z,88.16
2018-01-21T00:28:06.357Z,88.16
2018-01-21T00:29:15.911Z,88.16
2018-01-21T00:30:25.714Z,88.16
2018-01-21T00:31:36.514Z,88.06
2018-01-21T00:32:46.593Z,88.25
2018-01-21T00:33:57.208Z,88.25
2018-01-21T00:35:07.268Z,88.25
2018-01-21T00:36:17.340Z,88.16
2018-01-21T00:37:27.403Z,88.35
2018-01-21T00:38:37.462Z,87.97
2018-01-21T00:39:47.569Z,88.16
2018-01-21T00:40:57.368Z,87.77
2018-01-21T00:42:07.409Z,88.25
2018-01-21T00:43:17.469Z,88.25
2018-01-21T00:44:27.520Z,88.16
2018-01-21T00:45:38.869Z,88.29
2018-01-21T00:46:48.925Z,88.25
2018-01-21T00:47:59.431Z,87.97
2018-01-21T00:49:09.222Z,88.35
2018-01-21T00:50:19.318Z,88.29
2018-01-21T00:51:29.364Z,88.01
2018-01-21T00:52:39.146Z,87.87
2018-01-21T00:53:48.926Z,87.92
2018-01-21T00:54:58.974Z,87.92
2018-01-21T00:56:09.024Z,87.92
2018-01-21T00:57:18.875Z,88.39
2018-01-21T00:58:28.932Z,88.39
2018-01-21T00:59:38.998Z,88.1
2018-01-21T01:00:49.045Z,88.29
2018-01-21T01:01:59.159Z,88.29
2018-01-21T01:03:09.216Z,87.82
2018-01-21T01:04:19.255Z,87.82
2018-01-21T01:05:29.054Z,87.73
2018-01-21T01:06:39.103Z,88.01
2018-01-21T01:07:49.198Z,88.01
2018-01-21T01:08:59.291Z,87.92
2018-01-21T01:10:09.366Z,87.82
2018-01-21T01:11:19.402Z,88.2
2018-01-21T01:12:29.462Z,88.1
2018-01-21T01:13:39.259Z,88.29
2018-01-21T01:14:49.341Z,88.1
2018-01-21T01:15:59.151Z,88.2
2018-01-21T01:17:08.679Z,87.92
2018-01-21T01:18:19.815Z,88.01
2018-01-21T01:19:29.860Z,88.1
2018-01-21T01:20:39.422Z,88.1
2018-01-21T01:21:48.694Z,88.29
2018-01-21T01:22:58.781Z,88.1
2018-01-21T01:24:08.827Z,87.92
2018-01-21T01:25:18.886Z,87.92
2018-01-21T01:26:28.928Z,88.29
2018-01-21T01:27:38.962Z,88.48
2018-01-21T01:28:49.241Z,88.29
2018-01-21T01:29:59.288Z,88.1
2018-01-21T01:31:09.326Z,88.29
2018-01-21T01:32:19.129Z,87.73
2018-01-21T01:33:28.907Z,88.29
2018-01-21T01:34:38.944Z,88.01
2018-01-21T01:35:48.997Z,88.1
2018-01-21T01:36:59.084Z,88.1
2018-01-21T01:38:08.680Z,88.2
2018-01-21T01:39:18.463Z,88.2
2018-01-21T01:40:28.511Z,88.1
2018-01-21T01:41:38.571Z,88.1
2018-01-21T01:42:48.357Z,87.82
2018-01-21T01:43:58.408Z,87.92
2018-01-21T01:45:08.456Z,88.1
2018-01-21T01:46:18.246Z,87.92
2018-01-21T01:47:28.308Z,87.92
2018-01-21T01:48:38.094Z,87.82
2018-01-21T01:49:48.205Z,87.92
2018-01-21T01:50:58.254Z,87.92
2018-01-21T01:52:07.785Z,87.92
2018-01-21T01:53:18.441Z,87.92
2018-01-21T01:54:28.238Z,87.92
2018-01-21T01:55:38.326Z,88.39
2018-01-21T01:56:48.368Z,88.39
2018-01-21T01:57:57.886Z,88.1
2018-01-21T01:59:07.685Z,88.29
2018-01-21T02:00:17.747Z,88.29
2018-01-21T02:01:27.793Z,88.29
2018-01-21T02:02:37.822Z,88.01
2018-01-21T02:03:47.859Z,88.29
2018-01-21T02:04:57.907Z,88.01
2018-01-21T02:06:07.952Z,87.97
2018-01-21T02:07:17.989Z,88.06
2018-01-21T02:08:28.024Z,88.16
2018-01-21T02:09:38.071Z,88.16
2018-01-21T02:10:47.858Z,88.44
2018-01-21T02:11:57.899Z,88.44
2018-01-21T02:13:07.991Z,88.06
2018-01-21T02:14:18.023Z,88.54
2018-01-21T02:15:28.069Z,88.16
2018-01-21T02:16:38.118Z,88.25
2018-01-21T02:17:48.169Z,88.44
2018-01-21T02:18:58.204Z,88.35
2018-01-21T02:20:08.004Z,87.97
2018-01-21T02:21:18.043Z,88.25
2018-01-21T02:22:28.080Z,88.25
2018-01-21T02:23:38.117Z,88.06
2018-01-21T02:24:47.909Z,87.87
2018-01-21T02:25:57.952Z,87.87
2018-01-21T02:27:08.003Z,87.87
2018-01-21T02:28:18.054Z,88.35
2018-01-21T02:29:27.822Z,88.35
2018-01-21T02:30:37.657Z,88.25
2018-01-21T02:31:47.720Z,87.87
2018-01-21T02:32:57.506Z,87.87
2018-01-21T02:34:07.286Z,88.35
2018-01-21T02:35:17.069Z,87.87
2018-01-21T02:36:26.920Z,88.16
2018-01-21T02:37:36.954Z,87.87
2018-01-21T02:38:47.000Z,87.77
2018-01-21T02:39:57.065Z,87.87
2018-01-21T02:41:07.115Z,87.92
2018-01-21T02:42:17.206Z,87.63
2018-01-21T02:43:27.250Z,87.92
2018-01-21T02:44:37.302Z,88.01
2018-01-21T02:45:47.374Z,87.45
2018-01-21T02:46:57.419Z,87.73
2018-01-21T02:48:07.569Z,87.63
2018-01-21T02:49:17.356Z,87.35
2018-01-21T02:50:27.157Z,87.45
2018-01-21T02:51:37.196Z,87.63
2018-01-21T02:52:47.241Z,87.82
2018-01-21T02:53:57.072Z,87.54
2018-01-21T02:55:07.729Z,87.92
2018-01-21T02:56:17.775Z,87.92
2018-01-21T02:57:27.813Z,87.92
2018-01-21T02:58:37.591Z,88.01
2018-01-21T02:59:47.641Z,88.1
2018-01-21T03:00:57.689Z,87.54
2018-01-21T03:02:07.754Z,87.35
2018-01-21T03:03:17.787Z,87.35
2018-01-21T03:34:39.078Z,83.24
2018-01-21T03:35:48.332Z,84.28
2018-01-21T03:36:58.359Z,85.13
2018-01-21T03:38:08.401Z,86.55
2018-01-21T03:39:17.913Z,86.83
2018-01-21T03:40:27.994Z,87.98
2018-01-21T03:41:37.801Z,88.54
2018-01-21T03:42:47.866Z,88.92
2018-01-21T03:43:57.899Z,89.11
2018-01-21T03:45:07.932Z,89.2
2018-01-21T03:46:17.711Z,89.44
2018-01-21T03:47:27.496Z,89.63
2018-01-21T03:48:37.021Z,89.82
2018-01-21T03:49:47.074Z,89.34
2018-01-21T03:50:57.109Z,89.15
2018-01-21T03:52:06.890Z,89.25
2018-01-21T03:53:16.928Z,89.29
2018-01-21T03:54:26.984Z,89.29
2018-01-21T03:55:36.796Z,89.2
2018-01-21T03:56:46.842Z,88.92
2018-01-21T03:57:56.984Z,89.01
2018-01-21T03:59:06.780Z,88.44
2018-01-21T04:00:16.568Z,88.58
2018-01-21T04:01:26.384Z,88.58
2018-01-21T04:02:36.416Z,88.39
2018-01-21T04:03:46.452Z,88.77
2018-01-21T04:04:56.496Z,88.77
2018-01-21T04:06:06.540Z,88.58
2018-01-21T04:07:16.071Z,88.68
2018-01-21T04:08:26.115Z,88.58
2018-01-21T04:09:36.169Z,88.29
2018-01-21T04:10:45.968Z,88.2
2018-01-21T04:11:55.760Z,88.1
2018-01-21T04:13:05.803Z,88.06
2018-01-21T04:14:15.849Z,88.1
2018-01-21T04:15:25.681Z,88.06
2018-01-21T04:16:35.482Z,88.34
2018-01-21T04:17:45.518Z,88.34
2018-01-21T04:18:55.565Z,88.15
2018-01-21T04:20:05.347Z,88.24
2018-01-21T04:21:15.115Z,88.06
2018-01-21T04:22:25.165Z,88.24
2018-01-21T04:23:34.972Z,88.06
2018-01-21T04:24:45.009Z,88.06
2018-01-21T04:25:54.792Z,88.34
2018-01-21T04:27:04.902Z,88.06
2018-01-21T04:28:14.964Z,88.43
2018-01-21T04:29:25.011Z,88.34
2018-01-21T04:30:35.056Z,87.96
2018-01-21T04:31:45.106Z,87.96
2018-01-21T04:32:55.148Z,87.96
2018-01-21T04:34:04.930Z,87.87
2018-01-21T04:35:14.966Z,88.24
2018-01-21T04:36:24.752Z,88.15
2018-01-21T04:37:34.537Z,87.96
2018-01-21T04:38:44.591Z,88.43
2018-01-21T04:39:54.634Z,88.34
2018-01-21T04:41:04.681Z,88.43
2018-01-21T04:42:14.454Z,88.43
2018-01-21T04:43:24.262Z,88.43
2018-01-21T04:44:34.351Z,88.53
2018-01-21T04:45:44.152Z,88.24
2018-01-21T04:46:54.203Z,88.43
2018-01-21T04:48:04.236Z,88.53
2018-01-21T04:49:14.281Z,88.53
2018-01-21T04:50:24.325Z,88.43
2018-01-21T04:51:34.111Z,88.91
2018-01-21T04:52:44.166Z,88.34
2018-01-21T04:53:53.928Z,88.72
2018-01-21T04:55:03.965Z,88.62
2018-01-21T04:56:13.793Z,88.53
2018-01-21T04:57:23.844Z,88.34
2018-01-21T04:58:33.881Z,88.43
2018-01-21T04:59:43.927Z,88.53
2018-01-21T05:00:53.974Z,88.43
2018-01-21T05:02:04.022Z,88.53
2018-01-21T05:03:14.062Z,88.53
2018-01-21T05:04:23.855Z,89.2
2018-01-21T05:05:33.896Z,88.29
2018-01-21T05:06:43.432Z,88.77
2018-01-21T05:07:53.470Z,88.77
2018-01-21T05:09:02.995Z,88.68
2018-01-21T05:10:13.192Z,88.68
2018-01-21T05:11:23.230Z,88.58
2018-01-21T05:12:32.756Z,88.87
2018-01-21T05:13:42.542Z,88.77
2018-01-21T05:14:52.574Z,88.96
2018-01-21T05:16:02.361Z,88.77
2018-01-21T05:17:12.153Z,88.68
2018-01-21T05:18:21.942Z,88.77
2018-01-21T05:19:31.987Z,88.58
2018-01-21T05:20:42.043Z,88.29
2018-01-21T05:21:51.815Z,88.48
2018-01-21T05:23:01.857Z,88.68
2018-01-21T05:24:11.373Z,88.77
2018-01-21T05:25:20.890Z,88.48
2018-01-21T05:26:30.937Z,88.68
2018-01-21T05:27:40.978Z,88.77
2018-01-21T05:28:51.025Z,88.68
2018-01-21T05:30:01.063Z,88.48
2018-01-21T05:31:11.145Z,88.68
2018-01-21T05:32:20.913Z,88.77
2018-01-21T05:33:30.951Z,88.87
2018-01-21T05:34:40.738Z,88.77
2018-01-21T05:35:50.781Z,88.87
2018-01-21T05:37:01.037Z,88.77
2018-01-21T05:38:10.840Z,88.77
2018-01-21T05:39:20.609Z,88.87
2018-01-21T05:40:30.667Z,88.39
2018-01-21T05:41:40.710Z,88.87
2018-01-21T05:42:50.800Z,88.68
2018-01-21T05:44:00.842Z,88.87
2018-01-21T05:45:10.931Z,88.77
2018-01-21T05:46:20.974Z,88.87
2018-01-21T05:47:30.761Z,88.68
2018-01-21T05:48:40.858Z,88.87
2018-01-21T05:49:50.908Z,88.77
2018-01-21T05:51:00.681Z,88.77
2018-01-21T05:52:10.720Z,88.87
2018-01-21T05:53:20.750Z,88.77
2018-01-21T05:54:30.801Z,88.87
2018-01-21T05:55:40.577Z,88.68
2018-01-21T05:56:50.628Z,88.77
2018-01-21T05:58:00.666Z,88.68
2018-01-21T05:59:10.184Z,88.77
2018-01-21T06:00:20.310Z,88.39
2018-01-21T06:01:30.372Z,88.68
2018-01-21T06:02:40.161Z,88.77
2018-01-21T06:03:50.204Z,88.68
2018-01-21T06:05:00.250Z,88.29
2018-01-21T06:06:10.338Z,88.77
2018-01-21T06:07:20.390Z,88.73
2018-01-21T06:08:30.205Z,88.87
2018-01-21T06:09:40.306Z,88.73
2018-01-21T06:10:50.366Z,88.82
2018-01-21T06:12:00.464Z,88.63
2018-01-21T06:13:10.529Z,88.82
2018-01-21T06:14:20.575Z,88.63
2018-01-21T06:15:30.362Z,88.82
2018-01-21T06:16:40.387Z,88.73
2018-01-21T06:17:50.439Z,88.63
2018-01-21T06:19:00.222Z,88.44
2018-01-21T06:20:10.008Z,88.92
2018-01-21T06:21:19.791Z,88.63
2018-01-21T06:22:29.837Z,88.44
2018-01-21T06:23:39.925Z,88.44
2018-01-21T06:24:49.960Z,88.35
2018-01-21T06:26:00.010Z,88.25
2018-01-21T06:27:09.801Z,88.44
2018-01-21T06:28:19.586Z,88.44
2018-01-21T06:29:29.417Z,88.44
2018-01-21T06:30:39.469Z,88.63
2018-01-21T06:31:49.511Z,88.44
2018-01-21T06:32:59.553Z,88.44
2018-01-21T06:34:09.352Z,88.54
2018-01-21T06:35:18.669Z,88.16
2018-01-21T06:36:28.720Z,88.35
2018-01-21T06:37:38.762Z,88.35
2018-01-21T06:38:48.811Z,88.35
2018-01-21T06:39:58.326Z,88.54
2018-01-21T06:41:08.439Z,88.44
2018-01-21T06:42:18.231Z,88.06
2018-01-21T06:43:28.285Z,88.06
2018-01-21T06:44:38.340Z,88.06
2018-01-21T06:45:48.393Z,88.58
2018-01-21T06:46:58.441Z,88.1
2018-01-21T06:48:08.495Z,88.29
2018-01-21T06:49:18.543Z,88.01
2018-01-21T06:50:28.589Z,88.1
2018-01-21T06:51:38.641Z,87.92
2018-01-21T06:52:48.419Z,87.92
2018-01-21T06:53:58.461Z,87.82
2018-01-21T06:55:08.515Z,87.73
2018-01-21T06:56:18.577Z,88.2
2018-01-21T06:57:28.627Z,88.1
2018-01-21T06:58:38.417Z,88.1
2018-01-21T06:59:48.458Z,88.29
2018-01-21T07:00:58.544Z,87.82
2018-01-21T07:02:08.578Z,87.82
2018-01-21T07:03:18.628Z,87.92
2018-01-21T07:04:28.797Z,88.29
2018-01-21T07:05:38.854Z,88.1
2018-01-21T07:06:48.895Z,88.39
2018-01-21T07:07:58.711Z,88.1
2018-01-21T07:09:08.518Z,88.1
2018-01-21T07:10:18.612Z,88.29
2018-01-21T07:11:28.712Z,88.29
2018-01-21T07:12:38.238Z,88.29
2018-01-21T07:13:48.306Z,88.29
2018-01-21T07:14:58.089Z,88.29
2018-01-21T07:16:08.194Z,88.29
2018-01-21T07:17:18.234Z,88.39
2018-01-21T07:18:28.296Z,88.1
2018-01-21T07:19:38.420Z,87.92
2018-01-21T07:20:48.460Z,87.92
2018-01-21T07:21:58.501Z,88.1
2018-01-21T07:23:08.555Z,88.1
2018-01-21T07:24:18.354Z,88.1
2018-01-21T07:25:28.420Z,88.2
2018-01-21T07:26:38.469Z,88.1
2018-01-21T07:27:48.502Z,88.29
2018-01-21T07:28:58.536Z,88.29
2018-01-21T07:30:08.613Z,88.29
2018-01-21T07:31:18.647Z,88.39
2018-01-21T07:32:28.690Z,88.01
2018-01-21T07:33:38.798Z,88.29
2018-01-21T07:34:48.908Z,88.1
2018-01-21T07:35:58.934Z,88.2
2018-01-21T07:37:08.968Z,88.39
2018-01-21T07:38:18.754Z,88.39
2018-01-21T07:39:28.542Z,88.48
2018-01-21T07:40:38.332Z,87.92
2018-01-21T07:41:47.861Z,87.73
2018-01-21T07:42:57.635Z,88.1
2018-01-21T07:44:07.465Z,88.48
2018-01-21T07:45:17.612Z,87.63
2018-01-21T07:46:27.136Z,87.82
2018-01-21T07:47:37.200Z,87.82
2018-01-21T07:48:47.260Z,87.92
2018-01-21T07:49:57.088Z,87.82
2018-01-21T07:51:07.245Z,87.73
2018-01-21T07:52:17.049Z,87.77
2018-01-21T07:53:26.828Z,87.77
2018-01-21T07:54:36.858Z,87.39
2018-01-21T07:55:46.889Z,87.96
2018-01-21T07:56:56.978Z,87.77
2018-01-21T07:58:06.764Z,87.68
2018-01-21T07:59:17.468Z,87.68
2018-01-21T08:00:27.531Z,88.15
2018-01-21T08:01:37.589Z,88.2
2018-01-21T08:02:47.626Z,88.1
2018-01-21T08:03:57.675Z,88.01
2018-01-21T08:05:07.473Z,88.1
2018-01-21T08:06:17.544Z,88.1
2018-01-21T08:07:27.330Z,88.39
2018-01-21T08:08:37.162Z,88.29
2018-01-21T08:09:47.216Z,88.48
2018-01-21T08:10:56.999Z,88.39
2018-01-21T08:12:07.048Z,88.48
2018-01-21T08:13:17.145Z,88.48
2018-01-21T08:14:27.241Z,88.1
2018-01-21T08:15:37.373Z,88.1
2018-01-21T08:16:47.170Z,88.1
2018-01-21T08:17:57.220Z,88.15
2018-01-21T08:19:07.269Z,88.15
2018-01-21T08:20:17.303Z,87.87
2018-01-21T08:21:27.361Z,88.34
2018-01-21T08:22:37.413Z,87.96
2018-01-21T08:23:47.460Z,88.15
2018-01-21T08:24:57.517Z,87.68
2018-01-21T08:26:07.549Z,87.68
2018-01-21T08:27:17.590Z,87.96
2018-01-21T08:28:27.647Z,87.68
2018-01-21T08:29:37.698Z,87.68
2018-01-21T08:30:47.747Z,87.96
2018-01-21T08:31:57.802Z,87.96
2018-01-21T08:33:07.850Z,87.96
2018-01-21T08:34:17.909Z,87.96
2018-01-21T08:35:27.708Z,88.06
2018-01-21T08:36:37.495Z,87.96
2018-01-21T08:37:47.585Z,87.87
2018-01-21T08:38:57.376Z,88.06
2018-01-21T08:40:07.432Z,88.06
2018-01-21T08:41:17.497Z,88.06
2018-01-21T08:42:27.283Z,88.06
2018-01-21T08:43:37.344Z,87.68
2018-01-21T08:44:47.396Z,88.34
2018-01-21T08:45:57.192Z,87.87
2018-01-21T08:47:08.550Z,87.87
2018-01-21T08:48:18.605Z,87.87
2018-01-21T08:49:28.731Z,87.77
2018-01-21T08:50:39.385Z,87.87
2018-01-21T08:51:49.461Z,87.3
2018-01-21T08:52:59.528Z,87.68
2018-01-21T08:54:09.622Z,87.96
2018-01-21T08:55:19.788Z,87.68
2018-01-21T08:56:29.869Z,87.68
2018-01-21T08:57:39.658Z,87.68
2018-01-21T08:58:49.484Z,87.87
2018-01-21T08:59:59.535Z,87.68
2018-01-21T09:01:09.090Z,87.58
2018-01-21T09:02:19.160Z,87.58
2018-01-21T09:03:28.958Z,87.39
2018-01-21T09:04:39.086Z,87.58
2018-01-21T09:05:49.136Z,87.49
2018-01-21T09:06:59.190Z,87.62
2018-01-21T09:08:09.276Z,87.77
2018-01-21T09:09:19.408Z,87.34
2018-01-21T09:10:29.474Z,87.05
2018-01-21T09:11:39.527Z,87.15
2018-01-21T09:12:49.580Z,87.15
2018-01-21T09:13:59.652Z,87.15
2018-01-21T09:15:09.822Z,87.15
2018-01-21T09:16:19.885Z,87.72
2018-01-21T09:17:29.681Z,87.82
2018-01-21T09:18:39.465Z,87.15
2018-01-21T09:19:50.025Z,87.15
2018-01-21T09:21:00.088Z,87.05
2018-01-21T09:22:09.883Z,86.87
2018-01-21T09:23:19.162Z,87.62
2018-01-21T09:24:29.073Z,87.53
2018-01-21T09:25:39.158Z,87.62
2018-01-21T09:26:49.235Z,87.62
2018-01-21T09:27:59.030Z,87.72
2018-01-21T09:29:09.079Z,87.62
2018-01-21T09:30:18.915Z,87.24
2018-01-21T09:31:28.973Z,86.91
2018-01-21T09:32:39.089Z,87.29
2018-01-21T09:33:48.883Z,87.34
2018-01-21T09:34:58.751Z,87.19
2018-01-21T09:36:08.935Z,87.29
2018-01-21T09:37:18.716Z,87.19
2018-01-21T09:38:28.780Z,87.29
2018-01-21T09:39:38.820Z,87.29
2018-01-21T09:40:48.621Z,87.1
2018-01-21T09:41:58.653Z,87.38
2018-01-21T09:43:08.709Z,86.91
2018-01-21T09:44:18.508Z,87.38
2018-01-21T09:45:28.536Z,87.1
2018-01-21T09:46:38.581Z,86.91
2018-01-21T09:47:48.630Z,87.76
2018-01-21T09:48:58.686Z,87.57
2018-01-21T09:50:08.756Z,87.86
2018-01-21T09:51:18.816Z,87.29
2018-01-21T09:52:28.892Z,87.1
2018-01-21T09:53:38.989Z,87.48
2018-01-21T09:54:48.782Z,87.29
2018-01-21T09:55:58.576Z,87.1
2018-01-21T09:57:08.430Z,87.19
2018-01-21T09:58:18.762Z,86.91
2018-01-21T09:59:29.725Z,87.67
2018-01-21T10:00:39.789Z,88.05
2018-01-21T10:01:49.873Z,87.48
2018-01-21T10:03:00.036Z,88.05
2018-01-21T10:04:10.088Z,87.76
2018-01-21T10:05:19.894Z,86.95
2018-01-21T10:06:29.942Z,87.34
2018-01-21T10:07:39.742Z,87.24
2018-01-21T10:08:49.574Z,87.24
2018-01-21T10:09:59.386Z,87.24
2018-01-21T10:11:09.189Z,87.34
2018-01-21T10:12:19.260Z,87.43
2018-01-21T10:13:29.301Z,87.34
2018-01-21T10:14:39.353Z,87.24
2018-01-21T10:15:49.147Z,86.95
2018-01-21T10:16:59.020Z,86.86
2018-01-21T10:18:09.068Z,87.14
2018-01-21T10:19:19.124Z,86.95
2018-01-21T10:20:28.914Z,87.24
2018-01-21T10:21:38.981Z,86.47
2018-01-21T10:22:49.099Z,86.86
2018-01-21T10:23:58.366Z,86.67
2018-01-21T10:25:08.440Z,87.05
2018-01-21T10:26:18.523Z,87.14
2018-01-21T10:27:28.563Z,87.71
2018-01-21T10:28:38.645Z,87.71
2018-01-21T10:29:48.174Z,87.52
2018-01-21T10:30:58.041Z,87.52
2018-01-21T10:32:08.084Z,87.71
2018-01-21T10:33:17.888Z,88.09
2018-01-21T10:34:27.984Z,87.34
2018-01-21T10:35:38.048Z,87.71
2018-01-21T10:36:48.098Z,87.34
2018-01-21T10:37:57.917Z,87.81
2018-01-21T10:39:07.723Z,87.81
2018-01-21T10:40:17.327Z,87.81
2018-01-21T10:41:27.438Z,87.43
2018-01-21T10:42:37.500Z,87.71
2018-01-21T10:43:47.645Z,87.9
2018-01-21T10:44:57.710Z,87.71
2018-01-21T10:46:07.830Z,87.81
2018-01-21T10:47:17.906Z,88.09
2018-01-21T10:48:27.510Z,87.86
2018-01-21T10:49:37.305Z,87.81
2018-01-21T10:50:47.354Z,87.95
2018-01-21T10:51:57.525Z,88.19
2018-01-21T10:53:07.584Z,87.76
2018-01-21T10:54:17.649Z,88.34
2018-01-21T10:55:27.729Z,88.24
2018-01-21T10:56:37.509Z,88.05
2018-01-21T10:57:47.583Z,88.43
2018-01-21T10:58:57.650Z,87.86
2018-01-21T11:00:07.690Z,87.48
2018-01-21T11:01:17.695Z,87.76
2018-01-21T11:02:27.855Z,87.76
2018-01-21T11:03:37.929Z,87.76
2018-01-21T11:04:48.003Z,87.57
2018-01-21T11:05:58.052Z,87.48
2018-01-21T11:07:08.122Z,87.67
2018-01-21T11:08:17.919Z,87.9
2018-01-21T11:09:27.967Z,87.52
2018-01-21T11:10:38.014Z,87.52
2018-01-21T11:11:47.796Z,87.43
2018-01-21T11:12:57.855Z,87.24
2018-01-21T11:14:08.277Z,87.52
2018-01-21T11:15:18.322Z,87.52
2018-01-21T11:16:27.851Z,86.95
2018-01-21T11:17:37.645Z,87.34
2018-01-21T11:18:47.692Z,87.24
2018-01-21T11:19:57.797Z,87.52
2018-01-21T11:21:07.861Z,87.34
2018-01-21T11:22:17.902Z,87.52
2018-01-21T11:23:27.969Z,87.14
2018-01-21T11:24:38.029Z,87.52
2018-01-21T11:25:48.109Z,87.9
2018-01-21T11:26:58.164Z,88.05
2018-01-21T11:28:08.220Z,88
2018-01-21T11:29:18.281Z,87.86
2018-01-21T11:30:28.346Z,88.43
2018-01-21T11:31:38.464Z,88.53
2018-01-21T11:32:48.520Z,88.43
2018-01-21T11:33:58.606Z,88.34
2018-01-21T11:35:08.665Z,88.34
2018-01-21T11:36:18.720Z,88.15
2018-01-21T11:37:28.892Z,88.15
2018-01-21T11:38:38.699Z,87.86
2018-01-21T11:39:48.621Z,87.38
2018-01-21T11:40:58.687Z,87.67
2018-01-21T11:42:08.481Z,87.76
2018-01-21T11:43:18.404Z,87.14
2018-01-21T11:44:28.467Z,87.24
2018-01-21T11:45:38.522Z,87.14
2018-01-21T11:46:49.144Z,87.05
2018-01-21T11:47:59.209Z,87.34
2018-01-21T11:49:09.364Z,87.14
2018-01-21T11:50:19.413Z,86.95
2018-01-21T11:51:30.071Z,86.76
2018-01-21T11:52:40.127Z,87.24
2018-01-21T11:53:49.927Z,86.76
2018-01-21T11:54:59.525Z,87.14
2018-01-21T11:56:09.616Z,87.43
2018-01-21T11:57:19.697Z,87.62
2018-01-21T11:58:29.748Z,87.62
2018-01-21T11:59:40.630Z,87.62
2018-01-21T12:00:51.539Z,87.71
2018-01-21T12:02:01.355Z,87.71
2018-01-21T12:03:11.415Z,87.81
2018-01-21T12:04:22.316Z,87.76
2018-01-21T12:05:32.412Z,87.76
2018-01-21T12:06:42.471Z,88.43
2018-01-21T12:07:52.579Z,88.62
2018-01-21T12:09:02.656Z,88.43
2018-01-21T12:10:12.744Z,88.34
2018-01-21T12:11:22.818Z,87.95
2018-01-21T12:12:32.935Z,88.43
2018-01-21T12:13:43.096Z,87.95
2018-01-21T12:14:52.892Z,88.34
2018-01-21T12:16:02.722Z,88.24
2018-01-21T12:17:12.970Z,88.43
2018-01-21T12:18:23.041Z,87.76
2018-01-21T12:19:33.708Z,87.67
2018-01-21T12:20:43.815Z,87.95
2018-01-21T12:21:53.884Z,87.95
2018-01-21T12:23:04.398Z,87.86
2018-01-21T12:24:14.266Z,87.86
2018-01-21T12:25:24.336Z,87.76
2018-01-21T12:26:34.382Z,87.48
2018-01-21T12:27:44.174Z,87.76
2018-01-21T12:28:54.495Z,87.76
2018-01-21T12:30:04.617Z,87.76
2018-01-21T12:31:15.568Z,87.48
2018-01-21T12:32:25.615Z,87.48
2018-01-21T12:33:35.677Z,87.76
2018-01-21T12:34:46.389Z,87.95
2018-01-21T12:35:57.610Z,87.86
2018-01-21T12:37:07.687Z,87.76
2018-01-21T12:38:17.492Z,88.43
2018-01-21T12:39:27.615Z,88.24
2018-01-21T12:40:37.856Z,88.05
2018-01-21T12:41:48.224Z,88.05
2018-01-21T12:42:58.051Z,88.2
2018-01-21T12:44:08.141Z,88.01
2018-01-21T12:45:18.021Z,88.48
2018-01-21T12:46:28.088Z,87.91
2018-01-21T12:47:38.182Z,88.29
2018-01-21T12:48:48.293Z,87.82
2018-01-21T12:49:58.370Z,87.91
2018-01-21T12:51:08.580Z,87.53
2018-01-21T12:52:18.672Z,87.53
2018-01-21T12:53:28.228Z,87.53
2018-01-21T12:54:38.322Z,88.01
2018-01-21T12:55:48.427Z,88.01
2018-01-21T12:56:58.489Z,87.91
2018-01-21T12:58:08.557Z,88.1
2018-01-21T12:59:18.691Z,88.29
2018-01-21T13:00:28.768Z,87.82
2018-01-21T13:01:38.830Z,88.39
2018-01-21T13:02:48.891Z,88.48
2018-01-21T13:03:58.956Z,88.2
2018-01-21T13:05:09.024Z,88.01
2018-01-21T13:06:19.086Z,88.43
2018-01-21T13:07:29.182Z,88.2
2018-01-21T13:08:39.300Z,87.91
2018-01-21T13:09:49.356Z,88.01
2018-01-21T13:10:59.150Z,87.82
2018-01-21T13:12:09.225Z,87.91
2018-01-21T13:13:19.907Z,88.1
2018-01-21T13:14:30.100Z,87.91
2018-01-21T13:15:40.159Z,87.91
2018-01-21T13:16:49.979Z,87.43
2018-01-21T13:18:00.052Z,87.62
2018-01-21T13:19:10.118Z,87.43
2018-01-21T13:20:21.000Z,87.72
2018-01-21T13:21:31.118Z,87.91
2018-01-21T13:22:40.989Z,87.62
2018-01-21T13:23:51.071Z,88.01
2018-01-21T13:25:00.875Z,87.91
2018-01-21T13:26:10.471Z,87.34
2018-01-21T13:27:20.277Z,87.72
2018-01-21T13:28:30.364Z,88.01
2018-01-21T13:29:40.436Z,87.34
2018-01-21T13:30:50.510Z,87.72
2018-01-21T13:32:00.657Z,87.91
2018-01-21T13:33:11.039Z,87.91
2018-01-21T13:34:21.076Z,88.2
2018-01-21T13:35:30.882Z,87.91
2018-01-21T13:36:40.985Z,88.29
2018-01-21T13:37:50.889Z,88.1
2018-01-21T13:39:00.976Z,88.39
2018-01-21T13:40:12.298Z,88.39
2018-01-21T13:41:22.085Z,88.39
2018-01-21T13:42:31.946Z,88.2
2018-01-21T13:43:41.744Z,88.29
2018-01-21T13:44:51.826Z,87.87
2018-01-21T13:46:01.963Z,87.77
2018-01-21T13:47:12.046Z,88.15
2018-01-21T13:48:22.103Z,88.1
2018-01-21T13:49:32.239Z,88.39
2018-01-21T13:50:42.061Z,88.01
2018-01-21T13:51:51.870Z,88.39
2018-01-21T13:53:01.971Z,88.39
2018-01-21T13:54:12.044Z,87.91
2018-01-21T13:55:22.251Z,88.34
2018-01-21T13:56:32.081Z,88.2
2018-01-21T13:57:42.166Z,88.1
2018-01-21T13:58:52.240Z,88.2
2018-01-21T14:00:02.069Z,88.01
2018-01-21T14:01:12.175Z,88.01
2018-01-21T14:02:22.278Z,87.72
2018-01-21T14:03:32.425Z,88.01
2018-01-21T14:04:42.239Z,88.01
2018-01-21T14:05:52.028Z,87.91
2018-01-21T14:07:01.933Z,87.91
2018-01-21T14:08:12.214Z,87.53
2018-01-21T14:09:21.783Z,87.82
2018-01-21T14:10:32.081Z,88.1
2018-01-21T14:11:41.882Z,87.82
2018-01-21T14:12:52.016Z,87.72
2018-01-21T14:14:01.880Z,87.82
2018-01-21T14:15:12.829Z,87.91
2018-01-21T14:16:22.928Z,87.82
2018-01-21T14:17:34.441Z,87.72
2018-01-21T14:18:44.641Z,87.72
2018-01-21T14:19:54.757Z,87.82
2018-01-21T14:21:04.868Z,88.1
2018-01-21T14:22:15.120Z,87.91
2018-01-21T14:23:25.234Z,88.01
2018-01-21T14:24:35.516Z,88.01
2018-01-21T14:25:45.659Z,88.39
2018-01-21T14:26:56.994Z,88.29
2018-01-21T14:28:07.168Z,88.2
2018-01-21T14:29:17.218Z,88.2
2018-01-21T14:30:28.052Z,88.29
2018-01-21T14:31:38.849Z,88.29
2018-01-21T14:32:49.366Z,88.39
2018-01-21T14:34:00.374Z,88.48
2018-01-21T14:35:12.020Z,88.1
2018-01-21T14:36:22.180Z,88.1
2018-01-21T14:37:32.516Z,88.39
2018-01-21T14:38:42.322Z,88.57
2018-01-21T14:39:51.876Z,88.67
2018-01-21T14:41:01.701Z,88.34
2018-01-21T14:42:12.055Z,88.53
2018-01-21T14:50:32.178Z,88.72
2018-01-21T14:51:42.130Z,88.72
2018-01-21T14:52:51.949Z,88.43
2018-01-21T14:54:02.208Z,88.62
2018-01-21T14:55:12.312Z,88.62
2018-01-21T14:56:23.723Z,88.62
2018-01-21T14:57:33.625Z,88.34
2018-01-21T14:58:43.442Z,88.53
2018-01-21T14:59:54.056Z,88.53
2018-01-21T15:01:04.391Z,88.62
2018-01-21T15:02:14.447Z,88.72
2018-01-21T15:03:24.585Z,88.53
2018-01-21T15:04:35.012Z,88.68
2018-01-21T15:05:45.460Z,88.58
2018-01-21T15:06:55.836Z,88.68
2018-01-21T15:10:38.026Z,88.53
2018-01-21T15:11:48.426Z,88.62
2018-01-21T15:12:57.746Z,88.58
2018-01-21T15:14:07.670Z,88.48
2018-01-21T15:15:17.748Z,88.58
2018-01-21T15:16:27.833Z,88.58
2018-01-21T15:17:38.040Z,88.58
2018-01-21T15:18:48.118Z,88.39
2018-01-21T15:19:58.216Z,88.77
2018-01-21T15:21:09.087Z,88.77
2018-01-21T15:22:19.208Z,88.48
2018-01-21T15:23:29.318Z,88.77
2018-01-21T15:24:39.454Z,88.48
2018-01-21T15:25:49.549Z,88.48
2018-01-21T15:26:59.755Z,88.58
2018-01-21T15:28:09.663Z,88.29
2018-01-21T15:29:19.746Z,88.68
2018-01-21T15:30:29.927Z,89.06
2018-01-21T15:31:40.128Z,88.68
2018-01-21T15:32:50.199Z,88.68
2018-01-21T15:34:01.427Z,88.48
2018-01-21T15:35:11.478Z,88.68
2018-01-21T15:36:21.590Z,88.58
2018-01-21T15:37:31.769Z,88.68
2018-01-21T15:38:42.265Z,88.58
2018-01-21T15:39:52.340Z,88.68
2018-01-21T15:41:02.444Z,88.96
2018-01-21T15:42:12.520Z,88.68
2018-01-21T15:43:22.737Z,88.96
2018-01-21T15:44:32.834Z,88.96